sensor_id;sensor_type;location;lat;lon;timestamp;P1;durP1;ratioP1;P2;durP2;ratioP2
64950;SDS011;51482;47.014;7.652;2022-11-09T00:02:20;3.17;;;2.50;;
64950;SDS011;51482;47.014;7.652;2022-11-09T00:04:46;3.83;;;2.50;;
64950;SDS011;51482;47.014;7.652;2022-11-09T00:07:11;5.47;;;2.43;;
64950;SDS011;51482;47.014;7.652;2022-11-09T00:09:37;3.73;;;2.50;;
64950;SDS011;51482;47.014;7.652;2022-11-09T00:12:03;2.50;;;2.10;;
64950;SDS011;51482;47.014;7.652;2022-11-09T00:14:30;2.53;;;2.33;;
64950;SDS011;51482;47.014;7.652;2022-11-09T00:16:55;2.60;;;2.40;;
64950;SDS011;51482;47.014;7.652;2022-11-09T00:19:21;2.83;;;2.40;;
64950;SDS011;51482;47.014;7.652;2022-11-09T00:21:48;2.50;;;2.30;;
64950;SDS011;51482;47.014;7.652;2022-11-09T00:24:14;3.13;;;2.73;;
64950;SDS011;51482;47.014;7.652;2022-11-09T00:26:39;3.07;;;2.77;;
64950;SDS011;51482;47.014;7.652;2022-11-09T00:29:05;3.03;;;2.33;;
64950;SDS011;51482;47.014;7.652;2022-11-09T00:31:31;4.97;;;2.60;;
64950;SDS011;51482;47.014;7.652;2022-11-09T00:33:56;2.80;;;2.43;;
64950;SDS011;51482;47.014;7.652;2022-11-09T00:36:23;4.07;;;2.80;;
64950;SDS011;51482;47.014;7.652;2022-11-09T00:38:51;2.50;;;2.30;;
64950;SDS011;51482;47.014;7.652;2022-11-09T00:41:18;2.80;;;2.30;;
64950;SDS011;51482;47.014;7.652;2022-11-09T00:43:45;3.87;;;2.57;;
64950;SDS011;51482;47.014;7.652;2022-11-09T00:46:11;2.20;;;2.00;;
64950;SDS011;51482;47.014;7.652;2022-11-09T00:48:36;2.50;;;2.30;;
64950;SDS011;51482;47.014;7.652;2022-11-09T00:51:02;3.70;;;2.40;;
64950;SDS011;51482;47.014;7.652;2022-11-09T00:53:29;2.50;;;2.30;;
64950;SDS011;51482;47.014;7.652;2022-11-09T00:55:56;2.57;;;2.20;;
64950;SDS011;51482;47.014;7.652;2022-11-09T00:58:26;2.30;;;2.10;;
64950;SDS011;51482;47.014;7.652;2022-11-09T01:00:53;2.40;;;2.20;;
64950;SDS011;51482;47.014;7.652;2022-11-09T01:03:20;2.30;;;2.03;;
64950;SDS011;51482;47.014;7.652;2022-11-09T01:05:46;5.73;;;2.83;;
64950;SDS011;51482;47.014;7.652;2022-11-09T01:08:12;2.93;;;2.20;;
64950;SDS011;51482;47.014;7.652;2022-11-09T01:10:39;2.50;;;2.13;;
64950;SDS011;51482;47.014;7.652;2022-11-09T01:13:06;1.83;;;1.73;;
64950;SDS011;51482;47.014;7.652;2022-11-09T01:15:32;2.43;;;1.90;;
64950;SDS011;51482;47.014;7.652;2022-11-09T01:17:58;3.83;;;2.43;;
64950;SDS011;51482;47.014;7.652;2022-11-09T01:20:23;3.27;;;2.23;;
64950;SDS011;51482;47.014;7.652;2022-11-09T01:22:49;2.43;;;2.00;;
64950;SDS011;51482;47.014;7.652;2022-11-09T01:25:14;2.90;;;1.97;;
64950;SDS011;51482;47.014;7.652;2022-11-09T01:27:40;2.77;;;2.33;;
64950;SDS011;51482;47.014;7.652;2022-11-09T01:30:06;2.13;;;1.93;;
64950;SDS011;51482;47.014;7.652;2022-11-09T01:32:32;2.73;;;2.20;;
64950;SDS011;51482;47.014;7.652;2022-11-09T01:34:57;2.57;;;1.80;;
64950;SDS011;51482;47.014;7.652;2022-11-09T01:37:23;2.10;;;1.90;;
64950;SDS011;51482;47.014;7.652;2022-11-09T01:39:49;3.07;;;2.30;;
64950;SDS011;51482;47.014;7.652;2022-11-09T01:42:20;2.33;;;1.93;;
64950;SDS011;51482;47.014;7.652;2022-11-09T01:44:47;1.93;;;1.80;;
64950;SDS011;51482;47.014;7.652;2022-11-09T01:47:15;2.47;;;1.97;;
64950;SDS011;51482;47.014;7.652;2022-11-09T01:49:50;1.90;;;1.80;;
64950;SDS011;51482;47.014;7.652;2022-11-09T01:52:19;1.93;;;1.83;;
64950;SDS011;51482;47.014;7.652;2022-11-09T01:54:54;2.73;;;2.23;;
64950;SDS011;51482;47.014;7.652;2022-11-09T01:57:29;2.63;;;1.90;;
64950;SDS011;51482;47.014;7.652;2022-11-09T02:00:04;2.40;;;1.97;;
64950;SDS011;51482;47.014;7.652;2022-11-09T02:02:32;2.33;;;2.13;;
64950;SDS011;51482;47.014;7.652;2022-11-09T02:05:01;2.20;;;1.70;;
64950;SDS011;51482;47.014;7.652;2022-11-09T02:07:30;2.17;;;1.97;;
64950;SDS011;51482;47.014;7.652;2022-11-09T02:09:59;2.17;;;2.00;;
64950;SDS011;51482;47.014;7.652;2022-11-09T02:12:32;2.00;;;1.90;;
64950;SDS011;51482;47.014;7.652;2022-11-09T02:14:59;1.67;;;1.57;;
64950;SDS011;51482;47.014;7.652;2022-11-09T02:17:27;1.80;;;1.60;;
64950;SDS011;51482;47.014;7.652;2022-11-09T02:19:55;2.07;;;1.83;;
64950;SDS011;51482;47.014;7.652;2022-11-09T02:22:22;1.83;;;1.73;;
64950;SDS011;51482;47.014;7.652;2022-11-09T02:24:47;1.80;;;1.70;;
64950;SDS011;51482;47.014;7.652;2022-11-09T02:27:14;2.20;;;1.80;;
64950;SDS011;51482;47.014;7.652;2022-11-09T02:29:40;2.73;;;2.20;;
64950;SDS011;51482;47.014;7.652;2022-11-09T02:32:09;2.27;;;2.07;;
64950;SDS011;51482;47.014;7.652;2022-11-09T02:34:38;1.83;;;1.60;;
64950;SDS011;51482;47.014;7.652;2022-11-09T02:37:04;3.37;;;1.77;;
64950;SDS011;51482;47.014;7.652;2022-11-09T02:39:30;6.13;;;2.00;;
64950;SDS011;51482;47.014;7.652;2022-11-09T02:41:57;2.47;;;2.10;;
64950;SDS011;51482;47.014;7.652;2022-11-09T02:44:25;2.30;;;2.07;;
64950;SDS011;51482;47.014;7.652;2022-11-09T02:46:54;4.93;;;2.40;;
64950;SDS011;51482;47.014;7.652;2022-11-09T02:49:19;1.97;;;1.80;;
64950;SDS011;51482;47.014;7.652;2022-11-09T02:51:45;2.80;;;1.70;;
64950;SDS011;51482;47.014;7.652;2022-11-09T02:54:11;2.17;;;2.00;;
64950;SDS011;51482;47.014;7.652;2022-11-09T02:56:36;2.33;;;1.90;;
64950;SDS011;51482;47.014;7.652;2022-11-09T02:59:02;1.90;;;1.63;;
64950;SDS011;51482;47.014;7.652;2022-11-09T03:01:28;1.87;;;1.77;;
64950;SDS011;51482;47.014;7.652;2022-11-09T03:03:54;3.20;;;2.10;;
64950;SDS011;51482;47.014;7.652;2022-11-09T03:06:19;2.70;;;2.20;;
64950;SDS011;51482;47.014;7.652;2022-11-09T03:08:45;2.37;;;2.27;;
64950;SDS011;51482;47.014;7.652;2022-11-09T03:11:10;2.03;;;1.90;;
64950;SDS011;51482;47.014;7.652;2022-11-09T03:13:36;2.00;;;1.90;;
64950;SDS011;51482;47.014;7.652;2022-11-09T03:16:05;2.10;;;1.90;;
64950;SDS011;51482;47.014;7.652;2022-11-09T03:18:31;2.10;;;1.90;;
64950;SDS011;51482;47.014;7.652;2022-11-09T03:21:01;2.40;;;1.77;;
64950;SDS011;51482;47.014;7.652;2022-11-09T03:23:27;2.10;;;1.90;;
64950;SDS011;51482;47.014;7.652;2022-11-09T03:25:53;3.20;;;1.80;;
64950;SDS011;51482;47.014;7.652;2022-11-09T03:28:18;2.73;;;1.70;;
64950;SDS011;51482;47.014;7.652;2022-11-09T03:30:44;2.60;;;1.80;;
64950;SDS011;51482;47.014;7.652;2022-11-09T03:33:10;2.13;;;1.83;;
64950;SDS011;51482;47.014;7.652;2022-11-09T03:35:36;2.00;;;1.80;;
64950;SDS011;51482;47.014;7.652;2022-11-09T03:38:02;2.23;;;1.90;;
64950;SDS011;51482;47.014;7.652;2022-11-09T03:40:29;2.10;;;1.90;;
64950;SDS011;51482;47.014;7.652;2022-11-09T03:42:55;1.90;;;1.80;;
64950;SDS011;51482;47.014;7.652;2022-11-09T03:45:21;2.80;;;2.00;;
64950;SDS011;51482;47.014;7.652;2022-11-09T03:47:47;1.83;;;1.73;;
64950;SDS011;51482;47.014;7.652;2022-11-09T03:50:14;2.70;;;2.13;;
64950;SDS011;51482;47.014;7.652;2022-11-09T03:52:44;2.00;;;1.90;;
64950;SDS011;51482;47.014;7.652;2022-11-09T03:55:10;3.57;;;1.77;;
64950;SDS011;51482;47.014;7.652;2022-11-09T03:57:37;2.90;;;2.27;;
64950;SDS011;51482;47.014;7.652;2022-11-09T04:00:03;2.00;;;1.90;;
64950;SDS011;51482;47.014;7.652;2022-11-09T04:02:30;2.40;;;2.00;;
64950;SDS011;51482;47.014;7.652;2022-11-09T04:04:55;2.87;;;1.97;;
64950;SDS011;51482;47.014;7.652;2022-11-09T04:07:21;2.30;;;2.10;;
64950;SDS011;51482;47.014;7.652;2022-11-09T04:09:46;1.87;;;1.70;;
64950;SDS011;51482;47.014;7.652;2022-11-09T04:12:12;1.83;;;1.70;;
64950;SDS011;51482;47.014;7.652;2022-11-09T04:14:37;3.30;;;2.00;;
64950;SDS011;51482;47.014;7.652;2022-11-09T04:17:03;4.43;;;1.97;;
64950;SDS011;51482;47.014;7.652;2022-11-09T04:19:28;1.83;;;1.67;;
64950;SDS011;51482;47.014;7.652;2022-11-09T04:21:54;1.97;;;1.87;;
64950;SDS011;51482;47.014;7.652;2022-11-09T04:24:19;3.50;;;2.00;;
64950;SDS011;51482;47.014;7.652;2022-11-09T04:26:48;1.87;;;1.77;;
64950;SDS011;51482;47.014;7.652;2022-11-09T04:29:13;2.27;;;2.07;;
64950;SDS011;51482;47.014;7.652;2022-11-09T04:31:39;2.73;;;1.80;;
64950;SDS011;51482;47.014;7.652;2022-11-09T04:34:04;2.03;;;1.90;;
64950;SDS011;51482;47.014;7.652;2022-11-09T04:36:30;2.63;;;1.80;;
64950;SDS011;51482;47.014;7.652;2022-11-09T04:38:56;1.80;;;1.70;;
64950;SDS011;51482;47.014;7.652;2022-11-09T04:41:22;2.03;;;1.90;;
64950;SDS011;51482;47.014;7.652;2022-11-09T04:43:47;4.37;;;1.87;;
64950;SDS011;51482;47.014;7.652;2022-11-09T04:46:13;2.70;;;2.10;;
64950;SDS011;51482;47.014;7.652;2022-11-09T04:48:38;2.57;;;2.00;;
64950;SDS011;51482;47.014;7.652;2022-11-09T04:51:05;4.17;;;2.53;;
64950;SDS011;51482;47.014;7.652;2022-11-09T04:53:32;3.93;;;2.37;;
64950;SDS011;51482;47.014;7.652;2022-11-09T04:55:58;2.23;;;2.03;;
64950;SDS011;51482;47.014;7.652;2022-11-09T04:58:24;2.70;;;2.03;;
64950;SDS011;51482;47.014;7.652;2022-11-09T05:00:50;2.47;;;2.10;;
64950;SDS011;51482;47.014;7.652;2022-11-09T05:03:16;4.20;;;2.37;;
64950;SDS011;51482;47.014;7.652;2022-11-09T05:05:42;4.30;;;2.17;;
64950;SDS011;51482;47.014;7.652;2022-11-09T05:08:07;2.23;;;2.00;;
64950;SDS011;51482;47.014;7.652;2022-11-09T05:10:33;2.27;;;2.07;;
64950;SDS011;51482;47.014;7.652;2022-11-09T05:13:06;3.87;;;2.30;;
64950;SDS011;51482;47.014;7.652;2022-11-09T05:15:34;3.23;;;2.00;;
64950;SDS011;51482;47.014;7.652;2022-11-09T05:18:00;3.80;;;2.20;;
64950;SDS011;51482;47.014;7.652;2022-11-09T05:20:26;2.30;;;2.10;;
64950;SDS011;51482;47.014;7.652;2022-11-09T05:22:52;4.50;;;2.93;;
64950;SDS011;51482;47.014;7.652;2022-11-09T05:25:37;3.73;;;3.17;;
64950;SDS011;51482;47.014;7.652;2022-11-09T05:28:03;4.00;;;2.80;;
64950;SDS011;51482;47.014;7.652;2022-11-09T05:30:29;4.00;;;2.60;;
64950;SDS011;51482;47.014;7.652;2022-11-09T05:32:54;3.23;;;2.00;;
64950;SDS011;51482;47.014;7.652;2022-11-09T05:35:20;2.77;;;2.37;;
64950;SDS011;51482;47.014;7.652;2022-11-09T05:37:46;3.63;;;2.50;;
64950;SDS011;51482;47.014;7.652;2022-11-09T05:40:13;4.00;;;2.40;;
64950;SDS011;51482;47.014;7.652;2022-11-09T05:42:40;3.47;;;2.23;;
64950;SDS011;51482;47.014;7.652;2022-11-09T05:45:07;3.27;;;2.33;;
64950;SDS011;51482;47.014;7.652;2022-11-09T05:47:37;2.73;;;2.00;;
64950;SDS011;51482;47.014;7.652;2022-11-09T05:50:08;2.23;;;2.03;;
64950;SDS011;51482;47.014;7.652;2022-11-09T05:52:36;4.20;;;2.40;;
64950;SDS011;51482;47.014;7.652;2022-11-09T05:55:02;4.37;;;2.50;;
64950;SDS011;51482;47.014;7.652;2022-11-09T05:57:30;2.57;;;2.30;;
64950;SDS011;51482;47.014;7.652;2022-11-09T05:59:56;2.30;;;2.10;;
64950;SDS011;51482;47.014;7.652;2022-11-09T06:02:22;4.73;;;2.50;;
64950;SDS011;51482;47.014;7.652;2022-11-09T06:04:47;2.70;;;2.50;;
64950;SDS011;51482;47.014;7.652;2022-11-09T06:07:13;2.23;;;2.03;;
64950;SDS011;51482;47.014;7.652;2022-11-09T06:09:39;4.40;;;2.23;;
64950;SDS011;51482;47.014;7.652;2022-11-09T06:12:05;3.87;;;2.17;;
64950;SDS011;51482;47.014;7.652;2022-11-09T06:14:31;4.17;;;2.10;;
64950;SDS011;51482;47.014;7.652;2022-11-09T06:16:57;3.53;;;2.47;;
64950;SDS011;51482;47.014;7.652;2022-11-09T06:19:22;2.90;;;2.27;;
64950;SDS011;51482;47.014;7.652;2022-11-09T06:21:48;4.07;;;2.30;;
64950;SDS011;51482;47.014;7.652;2022-11-09T06:24:13;2.27;;;1.87;;
64950;SDS011;51482;47.014;7.652;2022-11-09T06:26:39;2.50;;;2.20;;
64950;SDS011;51482;47.014;7.652;2022-11-09T06:29:04;2.20;;;2.00;;
64950;SDS011;51482;47.014;7.652;2022-11-09T06:31:30;2.60;;;2.30;;
64950;SDS011;51482;47.014;7.652;2022-11-09T06:33:56;2.93;;;2.20;;
64950;SDS011;51482;47.014;7.652;2022-11-09T06:36:21;3.10;;;2.10;;
64950;SDS011;51482;47.014;7.652;2022-11-09T06:38:48;4.53;;;2.20;;
64950;SDS011;51482;47.014;7.652;2022-11-09T06:41:14;3.13;;;2.53;;
64950;SDS011;51482;47.014;7.652;2022-11-09T06:43:40;2.33;;;2.13;;
64950;SDS011;51482;47.014;7.652;2022-11-09T06:46:06;4.33;;;2.40;;
64950;SDS011;51482;47.014;7.652;2022-11-09T06:48:31;3.47;;;2.47;;
64950;SDS011;51482;47.014;7.652;2022-11-09T06:51:00;2.97;;;2.33;;
64950;SDS011;51482;47.014;7.652;2022-11-09T06:53:27;3.40;;;2.50;;
64950;SDS011;51482;47.014;7.652;2022-11-09T06:55:58;3.70;;;3.20;;
64950;SDS011;51482;47.014;7.652;2022-11-09T06:58:27;3.83;;;2.37;;
64950;SDS011;51482;47.014;7.652;2022-11-09T07:00:54;6.77;;;2.93;;
64950;SDS011;51482;47.014;7.652;2022-11-09T07:03:20;3.87;;;2.50;;
64950;SDS011;51482;47.014;7.652;2022-11-09T07:05:47;7.00;;;3.73;;
64950;SDS011;51482;47.014;7.652;2022-11-09T07:08:14;3.23;;;2.70;;
64950;SDS011;51482;47.014;7.652;2022-11-09T07:10:41;3.20;;;2.50;;
64950;SDS011;51482;47.014;7.652;2022-11-09T07:13:07;2.97;;;2.10;;
64950;SDS011;51482;47.014;7.652;2022-11-09T07:15:34;3.87;;;2.70;;
64950;SDS011;51482;47.014;7.652;2022-11-09T07:18:01;12.60;;;9.10;;
64950;SDS011;51482;47.014;7.652;2022-11-09T07:20:28;4.33;;;3.00;;
64950;SDS011;51482;47.014;7.652;2022-11-09T07:22:55;6.43;;;3.90;;
64950;SDS011;51482;47.014;7.652;2022-11-09T07:25:20;4.70;;;3.63;;
64950;SDS011;51482;47.014;7.652;2022-11-09T07:27:46;5.00;;;3.50;;
64950;SDS011;51482;47.014;7.652;2022-11-09T07:30:12;3.60;;;3.00;;
64950;SDS011;51482;47.014;7.652;2022-11-09T07:32:38;3.60;;;3.17;;
64950;SDS011;51482;47.014;7.652;2022-11-09T07:35:04;3.40;;;3.10;;
64950;SDS011;51482;47.014;7.652;2022-11-09T07:37:31;3.13;;;2.80;;
64950;SDS011;51482;47.014;7.652;2022-11-09T07:39:56;7.23;;;3.43;;
64950;SDS011;51482;47.014;7.652;2022-11-09T07:42:22;5.87;;;3.77;;
64950;SDS011;51482;47.014;7.652;2022-11-09T07:44:48;6.87;;;2.93;;
64950;SDS011;51482;47.014;7.652;2022-11-09T07:47:14;5.30;;;3.87;;
64950;SDS011;51482;47.014;7.652;2022-11-09T07:49:41;4.93;;;3.70;;
64950;SDS011;51482;47.014;7.652;2022-11-09T07:52:07;4.83;;;2.50;;
64950;SDS011;51482;47.014;7.652;2022-11-09T07:54:34;7.97;;;2.90;;
64950;SDS011;51482;47.014;7.652;2022-11-09T07:57:00;8.17;;;5.00;;
64950;SDS011;51482;47.014;7.652;2022-11-09T07:59:26;3.90;;;2.73;;
64950;SDS011;51482;47.014;7.652;2022-11-09T08:01:51;6.07;;;3.07;;
64950;SDS011;51482;47.014;7.652;2022-11-09T08:04:17;7.97;;;4.10;;
64950;SDS011;51482;47.014;7.652;2022-11-09T08:06:42;5.93;;;4.13;;
64950;SDS011;51482;47.014;7.652;2022-11-09T08:09:08;5.87;;;4.33;;
64950;SDS011;51482;47.014;7.652;2022-11-09T08:11:34;6.10;;;3.80;;
64950;SDS011;51482;47.014;7.652;2022-11-09T08:13:59;4.33;;;3.27;;
64950;SDS011;51482;47.014;7.652;2022-11-09T08:16:25;3.57;;;2.83;;
64950;SDS011;51482;47.014;7.652;2022-11-09T08:18:51;4.17;;;2.90;;
64950;SDS011;51482;47.014;7.652;2022-11-09T08:21:17;2.80;;;2.53;;
64950;SDS011;51482;47.014;7.652;2022-11-09T08:23:43;3.13;;;2.40;;
64950;SDS011;51482;47.014;7.652;2022-11-09T08:26:09;3.80;;;3.00;;
64950;SDS011;51482;47.014;7.652;2022-11-09T08:28:35;3.53;;;3.13;;
64950;SDS011;51482;47.014;7.652;2022-11-09T08:31:02;4.20;;;3.67;;
64950;SDS011;51482;47.014;7.652;2022-11-09T08:33:31;5.37;;;3.30;;
64950;SDS011;51482;47.014;7.652;2022-11-09T08:35:59;4.77;;;2.80;;
64950;SDS011;51482;47.014;7.652;2022-11-09T08:38:24;3.40;;;2.87;;
64950;SDS011;51482;47.014;7.652;2022-11-09T08:40:55;3.30;;;2.90;;
64950;SDS011;51482;47.014;7.652;2022-11-09T08:43:21;5.20;;;3.30;;
64950;SDS011;51482;47.014;7.652;2022-11-09T08:45:47;5.87;;;3.70;;
64950;SDS011;51482;47.014;7.652;2022-11-09T08:48:12;5.43;;;3.70;;
64950;SDS011;51482;47.014;7.652;2022-11-09T08:50:38;4.83;;;3.47;;
64950;SDS011;51482;47.014;7.652;2022-11-09T08:53:03;3.67;;;2.97;;
64950;SDS011;51482;47.014;7.652;2022-11-09T08:55:29;3.83;;;2.90;;
64950;SDS011;51482;47.014;7.652;2022-11-09T08:57:56;3.57;;;2.90;;
64950;SDS011;51482;47.014;7.652;2022-11-09T09:00:23;7.80;;;3.53;;
64950;SDS011;51482;47.014;7.652;2022-11-09T09:02:49;4.33;;;3.13;;
64950;SDS011;51482;47.014;7.652;2022-11-09T09:05:15;3.37;;;2.90;;
64950;SDS011;51482;47.014;7.652;2022-11-09T09:07:42;4.67;;;3.33;;
64950;SDS011;51482;47.014;7.652;2022-11-09T09:10:08;4.80;;;3.33;;
64950;SDS011;51482;47.014;7.652;2022-11-09T09:12:34;3.87;;;3.47;;
64950;SDS011;51482;47.014;7.652;2022-11-09T09:14:59;4.10;;;3.70;;
64950;SDS011;51482;47.014;7.652;2022-11-09T09:17:25;6.80;;;3.93;;
64950;SDS011;51482;47.014;7.652;2022-11-09T09:19:51;6.13;;;3.73;;
64950;SDS011;51482;47.014;7.652;2022-11-09T09:22:17;7.07;;;3.80;;
64950;SDS011;51482;47.014;7.652;2022-11-09T09:24:43;4.17;;;3.77;;
64950;SDS011;51482;47.014;7.652;2022-11-09T09:27:10;5.40;;;4.00;;
64950;SDS011;51482;47.014;7.652;2022-11-09T09:29:36;3.97;;;3.50;;
64950;SDS011;51482;47.014;7.652;2022-11-09T09:32:02;5.10;;;3.67;;
64950;SDS011;51482;47.014;7.652;2022-11-09T09:34:28;5.60;;;3.77;;
64950;SDS011;51482;47.014;7.652;2022-11-09T09:36:53;4.27;;;3.87;;
64950;SDS011;51482;47.014;7.652;2022-11-09T09:39:19;4.47;;;3.50;;
64950;SDS011;51482;47.014;7.652;2022-11-09T09:41:47;3.87;;;3.57;;
64950;SDS011;51482;47.014;7.652;2022-11-09T09:44:20;6.73;;;4.03;;
64950;SDS011;51482;47.014;7.652;2022-11-09T09:46:55;4.37;;;3.20;;
64950;SDS011;51482;47.014;7.652;2022-11-09T09:49:34;6.70;;;3.97;;
64950;SDS011;51482;47.014;7.652;2022-11-09T09:54:41;5.73;;;3.57;;
64950;SDS011;51482;47.014;7.652;2022-11-09T09:57:17;4.83;;;3.43;;
64950;SDS011;51482;47.014;7.652;2022-11-09T09:59:52;5.17;;;3.73;;
64950;SDS011;51482;47.014;7.652;2022-11-09T10:02:24;5.73;;;3.73;;
64950;SDS011;51482;47.014;7.652;2022-11-09T10:04:53;4.23;;;2.93;;
64950;SDS011;51482;47.014;7.652;2022-11-09T10:07:41;3.57;;;2.90;;
64950;SDS011;51482;47.014;7.652;2022-11-09T10:15:51;4.13;;;3.30;;
64950;SDS011;51482;47.014;7.652;2022-11-09T10:21:16;3.90;;;3.50;;
64950;SDS011;51482;47.014;7.652;2022-11-09T10:26:50;4.23;;;3.20;;
64950;SDS011;51482;47.014;7.652;2022-11-09T10:29:23;4.50;;;2.90;;
64950;SDS011;51482;47.014;7.652;2022-11-09T10:32:08;6.33;;;3.50;;
64950;SDS011;51482;47.014;7.652;2022-11-09T10:37:40;3.97;;;3.57;;
64950;SDS011;51482;47.014;7.652;2022-11-09T10:43:22;4.77;;;3.67;;
64950;SDS011;51482;47.014;7.652;2022-11-09T10:45:56;3.93;;;3.33;;
64950;SDS011;51482;47.014;7.652;2022-11-09T10:48:34;5.27;;;3.80;;
64950;SDS011;51482;47.014;7.652;2022-11-09T10:51:01;8.10;;;3.57;;
64950;SDS011;51482;47.014;7.652;2022-11-09T10:53:30;6.67;;;3.87;;
64950;SDS011;51482;47.014;7.652;2022-11-09T10:56:16;5.10;;;4.20;;
64950;SDS011;51482;47.014;7.652;2022-11-09T10:58:48;6.33;;;4.57;;
64950;SDS011;51482;47.014;7.652;2022-11-09T11:01:19;8.10;;;5.27;;
64950;SDS011;51482;47.014;7.652;2022-11-09T11:03:49;8.30;;;4.30;;
64950;SDS011;51482;47.014;7.652;2022-11-09T11:06:17;5.87;;;3.90;;
64950;SDS011;51482;47.014;7.652;2022-11-09T11:08:51;6.10;;;4.07;;
64950;SDS011;51482;47.014;7.652;2022-11-09T11:11:30;4.70;;;3.53;;
64950;SDS011;51482;47.014;7.652;2022-11-09T11:16:41;5.63;;;3.60;;
64950;SDS011;51482;47.014;7.652;2022-11-09T11:30:19;3.63;;;3.30;;
64950;SDS011;51482;47.014;7.652;2022-11-09T11:32:52;3.60;;;3.27;;
64950;SDS011;51482;47.014;7.652;2022-11-09T11:59:47;14.53;;;8.43;;
64950;SDS011;51482;47.014;7.652;2022-11-09T12:07:48;9.20;;;6.23;;
64950;SDS011;51482;47.014;7.652;2022-11-09T12:10:30;11.97;;;6.83;;
64950;SDS011;51482;47.014;7.652;2022-11-09T12:18:44;4.80;;;4.13;;
64950;SDS011;51482;47.014;7.652;2022-11-09T12:21:25;5.80;;;4.73;;
64950;SDS011;51482;47.014;7.652;2022-11-09T12:34:51;5.33;;;4.47;;
64950;SDS011;51482;47.014;7.652;2022-11-09T12:37:40;5.67;;;4.53;;
64950;SDS011;51482;47.014;7.652;2022-11-09T12:40:27;5.43;;;4.17;;
64950;SDS011;51482;47.014;7.652;2022-11-09T12:43:04;4.30;;;3.90;;
64950;SDS011;51482;47.014;7.652;2022-11-09T12:45:39;4.83;;;4.27;;
64950;SDS011;51482;47.014;7.652;2022-11-09T12:48:10;4.70;;;4.30;;
64950;SDS011;51482;47.014;7.652;2022-11-09T12:50:42;5.97;;;4.27;;
64950;SDS011;51482;47.014;7.652;2022-11-09T12:53:10;4.97;;;4.47;;
64950;SDS011;51482;47.014;7.652;2022-11-09T12:58:24;4.97;;;4.47;;
64950;SDS011;51482;47.014;7.652;2022-11-09T13:00:59;6.10;;;4.17;;
64950;SDS011;51482;47.014;7.652;2022-11-09T13:03:35;4.67;;;3.90;;
64950;SDS011;51482;47.014;7.652;2022-11-09T13:06:11;4.30;;;3.90;;
64950;SDS011;51482;47.014;7.652;2022-11-09T13:08:40;6.00;;;4.37;;
64950;SDS011;51482;47.014;7.652;2022-11-09T13:16:46;5.37;;;4.57;;
64950;SDS011;51482;47.014;7.652;2022-11-09T13:19:45;7.43;;;4.63;;
64950;SDS011;51482;47.014;7.652;2022-11-09T13:21:57;4.87;;;4.47;;
64950;SDS011;51482;47.014;7.652;2022-11-09T13:26:58;5.63;;;4.13;;
64950;SDS011;51482;47.014;7.652;2022-11-09T13:45:30;6.80;;;5.30;;
64950;SDS011;51482;47.014;7.652;2022-11-09T13:48:30;5.70;;;4.70;;
64950;SDS011;51482;47.014;7.652;2022-11-09T13:50:57;6.83;;;4.70;;
64950;SDS011;51482;47.014;7.652;2022-11-09T13:56:18;5.47;;;4.07;;
64950;SDS011;51482;47.014;7.652;2022-11-09T14:01:46;6.40;;;4.67;;
64950;SDS011;51482;47.014;7.652;2022-11-09T14:04:26;4.83;;;4.30;;
64950;SDS011;51482;47.014;7.652;2022-11-09T14:12:39;5.83;;;5.27;;
64950;SDS011;51482;47.014;7.652;2022-11-09T14:24:22;7.83;;;5.60;;
64950;SDS011;51482;47.014;7.652;2022-11-09T14:32:31;4.53;;;4.13;;
64950;SDS011;51482;47.014;7.652;2022-11-09T14:37:46;4.80;;;4.33;;
64950;SDS011;51482;47.014;7.652;2022-11-09T14:42:51;7.13;;;5.10;;
64950;SDS011;51482;47.014;7.652;2022-11-09T14:45:22;4.30;;;3.90;;
64950;SDS011;51482;47.014;7.652;2022-11-09T14:47:49;6.37;;;4.20;;
64950;SDS011;51482;47.014;7.652;2022-11-09T14:50:17;7.13;;;4.30;;
64950;SDS011;51482;47.014;7.652;2022-11-09T14:52:49;4.80;;;4.33;;
64950;SDS011;51482;47.014;7.652;2022-11-09T14:55:17;5.30;;;4.63;;
64950;SDS011;51482;47.014;7.652;2022-11-09T14:57:44;6.27;;;4.70;;
64950;SDS011;51482;47.014;7.652;2022-11-09T15:00:22;6.37;;;4.37;;
64950;SDS011;51482;47.014;7.652;2022-11-09T15:02:53;4.73;;;4.33;;
64950;SDS011;51482;47.014;7.652;2022-11-09T15:08:00;5.43;;;4.57;;
64950;SDS011;51482;47.014;7.652;2022-11-09T15:10:26;7.27;;;4.50;;
64950;SDS011;51482;47.014;7.652;2022-11-09T15:12:55;9.90;;;5.33;;
64950;SDS011;51482;47.014;7.652;2022-11-09T15:15:25;9.30;;;6.57;;
64950;SDS011;51482;47.014;7.652;2022-11-09T15:17:52;7.70;;;6.43;;
64950;SDS011;51482;47.014;7.652;2022-11-09T15:22:57;8.43;;;6.30;;
64950;SDS011;51482;47.014;7.652;2022-11-09T15:35:57;11.20;;;7.37;;
64950;SDS011;51482;47.014;7.652;2022-11-09T15:38:32;9.50;;;6.10;;
64950;SDS011;51482;47.014;7.652;2022-11-09T15:41:01;7.37;;;5.50;;
64950;SDS011;51482;47.014;7.652;2022-11-09T15:43:30;6.90;;;5.70;;
64950;SDS011;51482;47.014;7.652;2022-11-09T15:45:56;8.23;;;5.80;;
64950;SDS011;51482;47.014;7.652;2022-11-09T15:48:24;7.47;;;5.93;;
64950;SDS011;51482;47.014;7.652;2022-11-09T15:50:50;6.83;;;5.00;;
64950;SDS011;51482;47.014;7.652;2022-11-09T15:53:16;5.53;;;4.50;;
64950;SDS011;51482;47.014;7.652;2022-11-09T15:55:42;7.50;;;4.80;;
64950;SDS011;51482;47.014;7.652;2022-11-09T15:58:10;5.30;;;4.70;;
64950;SDS011;51482;47.014;7.652;2022-11-09T16:00:38;6.83;;;5.33;;
64950;SDS011;51482;47.014;7.652;2022-11-09T16:03:06;7.50;;;4.73;;
64950;SDS011;51482;47.014;7.652;2022-11-09T16:05:33;9.67;;;7.00;;
64950;SDS011;51482;47.014;7.652;2022-11-09T16:07:59;6.27;;;5.67;;
64950;SDS011;51482;47.014;7.652;2022-11-09T16:10:24;7.90;;;5.83;;
64950;SDS011;51482;47.014;7.652;2022-11-09T16:12:54;8.53;;;5.67;;
64950;SDS011;51482;47.014;7.652;2022-11-09T16:15:23;7.57;;;5.60;;
64950;SDS011;51482;47.014;7.652;2022-11-09T16:17:50;6.43;;;5.60;;
64950;SDS011;51482;47.014;7.652;2022-11-09T16:20:17;7.77;;;4.77;;
64950;SDS011;51482;47.014;7.652;2022-11-09T16:22:43;7.13;;;4.53;;
64950;SDS011;51482;47.014;7.652;2022-11-09T16:25:09;5.47;;;4.87;;
64950;SDS011;51482;47.014;7.652;2022-11-09T16:27:35;6.00;;;5.40;;
64950;SDS011;51482;47.014;7.652;2022-11-09T16:30:02;5.83;;;4.67;;
64950;SDS011;51482;47.014;7.652;2022-11-09T16:32:28;4.73;;;4.27;;
64950;SDS011;51482;47.014;7.652;2022-11-09T16:34:53;4.20;;;3.80;;
64950;SDS011;51482;47.014;7.652;2022-11-09T16:37:20;4.63;;;3.70;;
64950;SDS011;51482;47.014;7.652;2022-11-09T16:39:46;4.57;;;3.60;;
64950;SDS011;51482;47.014;7.652;2022-11-09T16:42:13;3.93;;;3.30;;
64950;SDS011;51482;47.014;7.652;2022-11-09T16:44:40;5.47;;;4.10;;
64950;SDS011;51482;47.014;7.652;2022-11-09T16:47:10;4.50;;;3.53;;
64950;SDS011;51482;47.014;7.652;2022-11-09T16:49:38;3.67;;;2.90;;
64950;SDS011;51482;47.014;7.652;2022-11-09T16:52:03;3.70;;;3.40;;
64950;SDS011;51482;47.014;7.652;2022-11-09T16:54:31;4.27;;;3.40;;
64950;SDS011;51482;47.014;7.652;2022-11-09T16:56:56;3.27;;;2.97;;
64950;SDS011;51482;47.014;7.652;2022-11-09T16:59:22;4.73;;;3.77;;
64950;SDS011;51482;47.014;7.652;2022-11-09T17:01:55;7.87;;;3.70;;
64950;SDS011;51482;47.014;7.652;2022-11-09T17:04:22;4.73;;;3.80;;
64950;SDS011;51482;47.014;7.652;2022-11-09T17:06:48;3.70;;;3.10;;
64950;SDS011;51482;47.014;7.652;2022-11-09T17:09:14;2.30;;;2.20;;
64950;SDS011;51482;47.014;7.652;2022-11-09T17:11:40;3.33;;;2.27;;
64950;SDS011;51482;47.014;7.652;2022-11-09T17:14:06;2.37;;;2.17;;
64950;SDS011;51482;47.014;7.652;2022-11-09T17:16:31;1.70;;;1.60;;
64950;SDS011;51482;47.014;7.652;2022-11-09T17:18:57;1.90;;;1.80;;
64950;SDS011;51482;47.014;7.652;2022-11-09T17:21:24;2.20;;;1.60;;
64950;SDS011;51482;47.014;7.652;2022-11-09T17:23:51;3.43;;;2.73;;
64950;SDS011;51482;47.014;7.652;2022-11-09T17:26:18;2.00;;;1.90;;
64950;SDS011;51482;47.014;7.652;2022-11-09T17:28:45;2.60;;;1.80;;